Time;durP1;ratioP1;P1;durP2;ratioP2;P2;SDS_P1;SDS_P2;PMS_P1;PMS_P2;Temp;Humidity;BMP_temperature;BMP_pressure;BME280_temperature;BME280_humidity;BME280_pressure;Samples;Min_cycle;Max_cycle;Signal;HPM_P1;HPM_P2
2022/07/13 00:00:29;;;;;;;0.68;0.30;;;19.10;92.80;;;;;;5072183;28;20032;-88
2022/07/13 00:02:55;;;;;;;0.80;0.30;;;19.10;92.60;;;;;;5079605;28;20032;-88
2022/07/13 00:05:21;;;;;;;1.27;0.22;;;19.10;92.70;;;;;;5069538;28;20543;-88
2022/07/13 00:07:46;;;;;;;0.43;0.20;;;19.00;92.70;;;;;;5075780;28;20025;-90
2022/07/13 00:10:12;;;;;;;0.80;0.20;;;19.00;92.70;;;;;;5077088;28;20060;-88
2022/07/13 00:12:39;;;;;;;1.50;0.40;;;19.10;92.80;;;;;;5078154;28;20397;-89
2022/07/13 00:15:05;;;;;;;0.70;0.30;;;19.00;92.90;;;;;;5078144;28;20048;-89
2022/07/13 00:17:31;;;;;;;1.35;0.47;;;19.00;93.00;;;;;;5073112;28;20027;-88
2022/07/13 00:19:57;;;;;;;0.52;0.20;;;19.00;93.10;;;;;;5075897;28;20028;-88
2022/07/13 00:22:22;;;;;;;0.70;0.30;;;19.00;93.20;;;;;;5074875;28;20017;-88
2022/07/13 00:24:48;;;;;;;0.85;0.30;;;19.00;93.20;;;;;;5076062;28;20031;-88
2022/07/13 00:27:14;;;;;;;1.63;0.40;;;19.00;93.50;;;;;;5075967;28;20512;-89
2022/07/13 00:29:39;;;;;;;0.60;0.30;;;18.90;93.70;;;;;;5078790;28;20404;-88
2022/07/13 00:32:05;;;;;;;0.98;0.35;;;18.90;93.80;;;;;;5078780;28;20025;-89
2022/07/13 00:34:32;;;;;;;1.20;0.30;;;18.90;93.90;;;;;;5079917;28;20054;-88
2022/07/13 00:36:58;;;;;;;1.60;0.30;;;18.90;93.90;;;;;;5078886;28;20078;-89
2022/07/13 00:39:24;;;;;;;0.95;0.30;;;18.90;93.80;;;;;;5079456;28;20037;-88
2022/07/13 00:41:49;;;;;;;0.52;0.40;;;18.80;93.80;;;;;;5079298;28;20028;-89
2022/07/13 00:44:17;;;;;;;1.02;0.32;;;18.80;94.00;;;;;;5076041;28;20024;-88
2022/07/13 00:46:51;;;;;;;1.45;0.40;;;18.70;94.30;;;;;;5081598;28;20161;-89
2022/07/13 00:49:16;;;;;;;1.13;0.40;;;18.70;94.50;;;;;;5075854;28;20017;-89
2022/07/13 00:51:42;;;;;;;0.85;0.47;;;18.70;94.40;;;;;;5079428;28;20580;-88
2022/07/13 00:54:08;;;;;;;0.68;0.30;;;18.60;94.40;;;;;;5079390;28;20389;-88
2022/07/13 00:56:35;;;;;;;1.08;0.28;;;18.60;94.70;;;;;;5078337;28;20052;-89
2022/07/13 00:59:04;;;;;;;1.17;0.57;;;18.60;94.70;;;;;;5079077;28;20056;-88
2022/07/13 01:01:30;;;;;;;0.45;0.28;;;18.60;94.70;;;;;;5079413;28;20047;-88
2022/07/13 01:03:56;;;;;;;2.08;0.30;;;18.50;94.70;;;;;;5078060;28;20099;-89
2022/07/13 01:06:22;;;;;;;0.55;0.20;;;18.50;95.10;;;;;;5072961;28;20027;-88
2022/07/13 01:08:48;;;;;;;0.60;0.22;;;18.50;94.70;;;;;;5081437;28;20060;-89
2022/07/13 01:11:14;;;;;;;0.93;0.30;;;18.50;94.80;;;;;;5079634;28;20032;-89
2022/07/13 01:13:40;;;;;;;1.27;0.43;;;18.50;95.10;;;;;;5079811;28;20024;-88
2022/07/13 01:16:08;;;;;;;0.75;0.30;;;18.40;95.20;;;;;;5079708;28;20028;-88
2022/07/13 01:18:34;;;;;;;0.30;0.30;;;18.40;95.70;;;;;;5081628;28;20036;-88
2022/07/13 01:21:00;;;;;;;1.35;0.43;;;18.30;95.60;;;;;;5079301;28;20586;-88
2022/07/13 01:23:27;;;;;;;2.55;0.35;;;18.30;95.90;;;;;;5081721;28;20024;-88
2022/07/13 01:25:56;;;;;;;0.75;0.35;;;18.20;95.80;;;;;;5078782;28;20044;-89
2022/07/13 01:28:23;;;;;;;1.13;0.35;;;18.20;95.80;;;;;;5077781;28;20344;-89
2022/07/13 01:30:49;;;;;;;0.63;0.20;;;18.20;96.00;;;;;;5078208;28;20032;-89
2022/07/13 01:33:18;;;;;;;0.98;0.30;;;18.10;96.10;;;;;;5079127;28;20028;-88
2022/07/13 01:35:44;;;;;;;1.27;0.30;;;18.10;96.10;;;;;;5096199;28;20052;-88
2022/07/13 01:38:10;;;;;;;0.52;0.20;;;18.10;96.10;;;;;;5073127;28;20036;-88
2022/07/13 01:40:36;;;;;;;0.70;0.30;;;18.10;96.20;;;;;;5078981;28;20032;-88
2022/07/13 01:43:02;;;;;;;0.38;0.20;;;18.00;96.10;;;;;;5075528;28;20097;-88
2022/07/13 01:45:27;;;;;;;0.63;0.20;;;18.10;96.30;;;;;;5078167;28;20112;-88
2022/07/13 01:47:55;;;;;;;1.17;0.30;;;18.10;96.40;;;;;;5076507;28;20028;-88
2022/07/13 01:50:23;;;;;;;0.68;0.20;;;18.10;96.40;;;;;;5079614;28;20029;-89
2022/07/13 01:52:50;;;;;;;1.00;0.28;;;18.10;96.40;;;;;;5079407;28;20028;-88
2022/07/13 01:55:16;;;;;;;0.95;0.35;;;18.30;96.50;;;;;;5080268;28;20725;-89
2022/07/13 01:57:42;;;;;;;0.80;0.40;;;18.10;96.70;;;;;;5075802;28;20031;-89
2022/07/13 02:00:20;;;;;;;0.73;0.30;;;18.10;96.70;;;;;;5093369;28;20024;-89
2022/07/13 02:02:47;;;;;;;1.13;0.38;;;18.10;97.00;;;;;;5078876;28;20054;-88
2022/07/13 02:05:13;;;;;;;1.13;0.50;;;18.00;97.30;;;;;;5067586;28;20047;-89
2022/07/13 02:07:40;;;;;;;1.08;0.40;;;17.90;97.30;;;;;;5071494;28;20036;-89
2022/07/13 02:10:07;;;;;;;1.75;0.40;;;17.90;97.50;;;;;;5071371;28;20025;-88
2022/07/13 02:12:33;;;;;;;1.08;0.43;;;17.90;97.70;;;;;;5077316;28;20028;-88
2022/07/13 02:15:02;;;;;;;1.08;0.40;;;17.90;98.00;;;;;;5079845;28;20054;-88
2022/07/13 02:17:28;;;;;;;0.40;0.22;;;17.90;98.20;;;;;;5077621;28;20032;-88
2022/07/13 02:19:57;;;;;;;1.77;0.40;;;17.90;98.30;;;;;;5073140;28;20065;-89
2022/07/13 02:22:23;;;;;;;0.80;0.43;;;17.90;98.50;;;;;;5080142;28;20035;-89
2022/07/13 02:24:49;;;;;;;1.70;0.55;;;17.90;98.70;;;;;;5079615;28;20111;-88
2022/07/13 02:27:14;;;;;;;0.80;0.30;;;17.80;98.90;;;;;;5077644;28;20056;-89
2022/07/13 02:29:40;;;;;;;0.82;0.50;;;17.80;98.90;;;;;;5082869;28;20106;-88
2022/07/13 02:32:07;;;;;;;1.55;0.50;;;17.80;99.20;;;;;;5078661;28;20032;-89
2022/07/13 02:34:32;;;;;;;2.38;0.40;;;17.70;99.30;;;;;;5081930;28;20046;-89
2022/07/13 02:36:58;;;;;;;1.05;0.35;;;17.70;99.30;;;;;;5075631;28;20074;-89
2022/07/13 02:39:24;;;;;;;1.30;0.50;;;17.70;99.60;;;;;;5079202;28;20060;-87
2022/07/13 02:41:50;;;;;;;0.50;0.20;;;17.70;99.70;;;;;;5095831;28;20035;-89
2022/07/13 02:44:17;;;;;;;1.05;0.50;;;17.60;99.90;;;;;;5078938;28;20049;-89
2022/07/13 02:46:42;;;;;;;1.15;0.40;;;17.50;99.90;;;;;;5079479;28;20027;-89
2022/07/13 02:49:08;;;;;;;1.58;0.43;;;17.40;99.90;;;;;;5078092;28;20404;-88
2022/07/13 02:51:35;;;;;;;0.57;0.25;;;17.70;99.90;;;;;;5096191;28;20032;-89
2022/07/13 02:54:01;;;;;;;1.38;0.50;;;17.20;99.90;;;;;;5078657;28;20040;-88
2022/07/13 02:56:27;;;;;;;1.35;0.47;;;17.20;99.90;;;;;;5074976;28;21261;-88
2022/07/13 02:58:52;;;;;;;0.52;0.30;;;17.10;99.90;;;;;;5079166;28;20484;-89
2022/07/13 03:01:18;;;;;;;0.85;0.32;;;17.10;99.90;;;;;;5089299;22;20052;-85
2022/07/13 03:03:44;;;;;;;1.15;0.35;;;17.00;99.90;;;;;;5049729;28;20028;-85
2022/07/13 03:06:09;;;;;;;0.98;0.40;;;17.00;99.90;;;;;;5043454;28;20056;-86
2022/07/13 03:08:37;;;;;;;0.52;0.30;;;17.00;99.90;;;;;;5045718;28;20072;-85
2022/07/13 03:11:05;;;;;;;1.48;0.40;;;17.00;99.90;;;;;;5049551;28;20032;-85
2022/07/13 03:13:31;;;;;;;2.47;0.50;;;17.00;99.90;;;;;;5052816;28;20021;-85
2022/07/13 03:15:59;;;;;;;1.95;0.32;;;17.10;99.90;;;;;;5052613;28;20039;-84
2022/07/13 03:18:24;;;;;;;1.05;0.38;;;17.10;99.90;;;;;;5049195;28;20099;-85
2022/07/13 03:20:50;;;;;;;2.47;0.40;;;17.10;99.90;;;;;;5049454;28;20124;-84
2022/07/13 03:23:16;;;;;;;0.60;0.30;;;17.10;99.90;;;;;;5052360;28;20378;-85
2022/07/13 03:25:42;;;;;;;0.82;0.38;;;17.10;99.90;;;;;;5053711;28;20112;-85
2022/07/13 03:28:07;;;;;;;0.98;0.30;;;17.00;99.90;;;;;;5051203;28;20056;-85
2022/07/13 03:30:36;;;;;;;0.82;0.30;;;17.00;99.90;;;;;;5049730;28;20079;-85
2022/07/13 03:33:02;;;;;;;0.55;0.20;;;16.90;99.90;;;;;;5050039;28;20035;-85
2022/07/13 03:35:28;;;;;;;1.10;0.30;;;17.00;99.90;;;;;;5052626;28;20037;-85
2022/07/13 03:37:53;;;;;;;1.38;0.30;;;16.90;99.90;;;;;;5052288;28;20382;-85
2022/07/13 03:40:19;;;;;;;0.93;0.40;;;16.90;99.90;;;;;;5052054;28;20021;-85
2022/07/13 03:42:45;;;;;;;0.60;0.40;;;16.80;99.90;;;;;;5053383;28;20761;-85
2022/07/13 03:45:11;;;;;;;0.75;0.30;;;16.80;99.90;;;;;;5048532;28;20032;-85
2022/07/13 03:47:36;;;;;;;1.27;0.40;;;16.80;99.90;;;;;;5053872;28;20079;-85
2022/07/13 03:50:06;;;;;;;1.30;0.52;;;16.80;99.90;;;;;;5052681;28;20042;-86
2022/07/13 03:52:31;;;;;;;1.20;0.40;;;16.80;99.90;;;;;;5049479;28;20104;-85
2022/07/13 03:54:57;;;;;;;0.52;0.30;;;16.80;99.90;;;;;;5052000;28;20630;-86
2022/07/13 03:57:23;;;;;;;1.17;0.40;;;16.80;99.90;;;;;;5050533;28;20036;-86
2022/07/13 03:59:48;;;;;;;1.15;0.40;;;16.80;99.90;;;;;;5048429;28;20056;-85
2022/07/13 04:02:14;;;;;;;0.85;0.40;;;16.70;99.90;;;;;;5052702;28;20035;-85
2022/07/13 04:04:39;;;;;;;0.95;0.30;;;16.70;99.90;;;;;;5054740;28;20155;-85
2022/07/13 04:07:05;;;;;;;1.27;0.40;;;16.70;99.90;;;;;;5041693;28;20048;-85
2022/07/13 04:09:31;;;;;;;0.60;0.30;;;16.70;99.90;;;;;;5053589;28;20044;-85
2022/07/13 04:11:59;;;;;;;0.88;0.40;;;16.80;99.90;;;;;;5051099;28;20021;-85
2022/07/13 04:14:25;;;;;;;3.50;0.50;;;16.70;99.90;;;;;;5051483;28;20021;-85
2022/07/13 04:16:51;;;;;;;1.33;0.40;;;16.80;99.90;;;;;;5051993;28;20131;-85
2022/07/13 04:19:17;;;;;;;1.38;0.60;;;16.80;99.90;;;;;;5046181;28;20041;-85
2022/07/13 04:21:43;;;;;;;1.77;0.50;;;16.80;99.90;;;;;;5051951;28;20112;-86
2022/07/13 04:24:11;;;;;;;1.27;0.45;;;16.80;99.90;;;;;;5053235;28;20223;-86
2022/07/13 04:26:39;;;;;;;1.05;0.30;;;16.90;99.90;;;;;;5052528;28;20100;-85
2022/07/13 04:29:04;;;;;;;0.70;0.45;;;16.90;99.90;;;;;;5052121;28;20025;-85
2022/07/13 04:31:33;;;;;;;1.00;0.38;;;17.00;99.90;;;;;;5051990;28;20078;-85
2022/07/13 04:33:59;;;;;;;0.90;0.40;;;17.00;99.90;;;;;;5056264;28;20508;-85
2022/07/13 04:36:25;;;;;;;2.13;0.30;;;17.00;99.90;;;;;;5055086;28;20035;-86
2022/07/13 04:38:50;;;;;;;0.95;0.38;;;17.00;99.90;;;;;;5054880;28;20025;-86
2022/07/13 04:41:16;;;;;;;1.00;0.40;;;17.10;99.90;;;;;;5053527;28;20017;-85
2022/07/13 04:43:45;;;;;;;0.88;0.32;;;17.10;99.90;;;;;;5053562;28;20097;-86
2022/07/13 04:46:12;;;;;;;0.70;0.40;;;17.10;99.90;;;;;;5049824;28;20062;-86
2022/07/13 04:48:38;;;;;;;1.15;0.40;;;17.20;99.90;;;;;;5047739;28;20033;-86
2022/07/13 04:51:04;;;;;;;0.90;0.40;;;17.20;99.90;;;;;;5048717;28;20129;-86
2022/07/13 04:53:30;;;;;;;1.52;0.60;;;17.10;99.90;;;;;;5047903;28;20461;-85
2022/07/13 04:55:56;;;;;;;0.70;0.30;;;17.10;99.90;;;;;;5047990;28;20078;-85
2022/07/13 04:58:21;;;;;;;1.73;0.47;;;17.20;99.90;;;;;;5044827;28;20478;-86
2022/07/13 05:00:47;;;;;;;1.38;0.50;;;17.20;99.90;;;;;;5049389;28;20477;-86
2022/07/13 05:03:13;;;;;;;1.60;0.50;;;17.20;99.90;;;;;;5052411;28;20029;-86
2022/07/13 05:05:38;;;;;;;1.73;0.70;;;17.10;99.90;;;;;;5049444;28;20393;-86
2022/07/13 05:08:05;;;;;;;1.05;0.52;;;17.20;99.90;;;;;;5048434;28;20021;-85
2022/07/13 05:10:31;;;;;;;1.70;0.60;;;17.30;99.90;;;;;;5040857;28;20083;-85
2022/07/13 05:12:58;;;;;;;1.73;0.50;;;17.50;99.90;;;;;;5048491;28;20053;-86
2022/07/13 05:15:23;;;;;;;0.90;0.40;;;17.70;99.90;;;;;;5049379;28;20021;-85
2022/07/13 05:17:50;;;;;;;1.00;0.40;;;17.80;99.90;;;;;;5047463;28;20396;-86
2022/07/13 05:20:16;;;;;;;1.35;0.50;;;17.90;99.90;;;;;;5048418;28;20083;-85
2022/07/13 05:22:41;;;;;;;1.33;0.50;;;18.00;99.90;;;;;;5044902;28;20440;-85
2022/07/13 05:25:08;;;;;;;1.13;0.50;;;18.00;99.90;;;;;;5045050;28;20037;-84
2022/07/13 05:27:33;;;;;;;1.20;0.50;;;18.00;99.90;;;;;;5049722;28;20469;-85
2022/07/13 05:29:59;;;;;;;1.33;0.50;;;18.00;99.90;;;;;;5047796;28;20017;-84
2022/07/13 05:32:24;;;;;;;2.47;0.50;;;18.00;99.90;;;;;;5046398;28;20385;-85
2022/07/13 05:34:50;;;;;;;1.55;0.50;;;18.00;99.90;;;;;;5048008;28;20117;-84
2022/07/13 05:37:16;;;;;;;0.98;0.40;;;18.00;99.90;;;;;;5048864;28;20021;-85
2022/07/13 05:39:43;;;;;;;1.63;0.68;;;18.20;99.90;;;;;;5043335;28;20447;-85
2022/07/13 05:42:10;;;;;;;0.70;0.40;;;18.30;99.90;;;;;;5049391;28;20025;-87
2022/07/13 05:44:35;;;;;;;1.10;0.40;;;18.50;99.90;;;;;;5050317;28;20025;-86
2022/07/13 05:47:01;;;;;;;1.08;0.30;;;18.70;99.90;;;;;;5046742;28;20036;-86
2022/07/13 05:49:27;;;;;;;1.95;0.50;;;18.80;99.90;;;;;;5047887;28;20429;-85
2022/07/13 05:51:53;;;;;;;1.15;0.45;;;18.90;99.90;;;;;;5048476;28;20389;-85
2022/07/13 05:54:18;;;;;;;1.30;0.30;;;19.10;99.90;;;;;;5048119;28;20024;-85
2022/07/13 05:56:44;;;;;;;1.02;0.30;;;19.20;99.90;;;;;;5045201;28;20032;-86
2022/07/13 05:59:10;;;;;;;0.68;0.20;;;19.40;99.90;;;;;;5044113;28;20033;-86
2022/07/13 06:01:35;;;;;;;0.90;0.40;;;19.30;99.90;;;;;;5046755;28;20025;-85
2022/07/13 06:04:01;;;;;;;0.50;0.20;;;19.00;99.90;;;;;;5046352;28;20463;-85
2022/07/13 06:06:27;;;;;;;1.55;0.30;;;18.80;99.90;;;;;;5045405;28;20086;-86
2022/07/13 06:08:52;;;;;;;0.50;0.20;;;18.70;99.90;;;;;;5048619;28;20020;-86
2022/07/13 06:11:18;;;;;;;0.93;0.30;;;18.60;99.90;;;;;;5046301;28;20028;-85
2022/07/13 06:13:44;;;;;;;1.15;0.30;;;18.60;99.90;;;;;;5047269;28;20075;-85
2022/07/13 06:16:09;;;;;;;0.75;0.30;;;18.70;99.90;;;;;;5045012;28;20029;-86
2022/07/13 06:18:35;;;;;;;0.77;0.30;;;18.90;99.90;;;;;;5045458;28;20112;-86
2022/07/13 06:21:01;;;;;;;1.83;0.52;;;18.90;99.90;;;;;;5044405;28;20039;-86
2022/07/13 06:23:26;;;;;;;0.63;0.30;;;18.80;99.90;;;;;;5049945;28;20021;-86
2022/07/13 06:25:53;;;;;;;1.50;0.50;;;18.80;99.90;;;;;;5050358;28;20025;-86
2022/07/13 06:28:19;;;;;;;1.92;0.80;;;18.80;99.90;;;;;;5046400;28;20029;-86
2022/07/13 06:30:45;;;;;;;1.88;0.45;;;18.80;99.90;;;;;;5044135;28;20033;-85
2022/07/13 06:33:10;;;;;;;2.20;0.50;;;18.90;99.90;;;;;;5046506;28;20051;-85
2022/07/13 06:35:36;;;;;;;1.23;0.30;;;19.00;99.90;;;;;;5051036;28;20025;-87
2022/07/13 06:38:02;;;;;;;2.03;0.40;;;19.10;99.90;;;;;;5046563;28;20033;-86
2022/07/13 06:40:28;;;;;;;1.33;0.50;;;19.10;99.90;;;;;;5047977;28;20052;-86
2022/07/13 06:42:53;;;;;;;1.42;0.40;;;19.20;99.90;;;;;;5048051;28;20029;-86
2022/07/13 06:45:21;;;;;;;2.38;0.70;;;19.30;99.90;;;;;;5050533;28;20039;-86
2022/07/13 06:47:46;;;;;;;0.93;0.40;;;19.40;99.90;;;;;;5050876;28;20259;-86
2022/07/13 06:50:12;;;;;;;1.77;0.28;;;19.30;99.90;;;;;;5049073;28;20055;-86
2022/07/13 06:52:40;;;;;;;1.00;0.40;;;19.30;99.90;;;;;;5049768;28;20382;-86
2022/07/13 06:55:07;;;;;;;2.25;0.50;;;19.30;99.90;;;;;;5049703;28;20021;-86
2022/07/13 06:57:33;;;;;;;3.13;0.60;;;19.40;99.90;;;;;;5053651;28;20636;-86
2022/07/13 06:59:58;;;;;;;1.13;0.38;;;19.50;99.90;;;;;;5053309;28;20029;-86
2022/07/13 07:02:24;;;;;;;1.33;0.40;;;19.70;99.90;;;;;;5069040;28;20722;-85
2022/07/13 07:04:51;;;;;;;0.93;0.38;;;20.00;99.90;;;;;;5050277;28;20504;-85
2022/07/13 07:07:17;;;;;;;4.38;0.47;;;20.20;99.90;;;;;;5052458;28;20024;-86
2022/07/13 07:09:42;;;;;;;0.63;0.22;;;20.40;99.90;;;;;;5051774;28;20417;-86
2022/07/13 07:12:09;;;;;;;7.35;0.57;;;20.30;99.90;;;;;;5051539;28;20018;-86
2022/07/13 07:14:34;;;;;;;1.25;0.40;;;20.50;99.90;;;;;;5050259;28;20452;-86
2022/07/13 07:17:02;;;;;;;2.72;0.50;;;20.60;99.90;;;;;;5051823;28;20017;-86
2022/07/13 07:19:28;;;;;;;2.35;0.30;;;21.00;99.90;;;;;;5052259;28;20472;-86
2022/07/13 07:21:54;;;;;;;0.95;0.35;;;21.20;99.90;;;;;;5053055;28;20021;-86
2022/07/13 07:24:20;;;;;;;1.52;0.45;;;21.40;99.90;;;;;;5050380;28;20017;-86
2022/07/13 07:26:47;;;;;;;2.28;0.40;;;21.70;99.90;;;;;;5045800;28;20021;-86
2022/07/13 07:29:14;;;;;;;2.25;0.40;;;21.80;99.90;;;;;;5045670;28;20037;-86
2022/07/13 07:31:40;;;;;;;2.72;0.25;;;22.10;99.90;;;;;;5042430;28;20057;-86
2022/07/13 07:34:06;;;;;;;3.22;0.52;;;22.20;99.90;;;;;;5050769;28;20508;-86
2022/07/13 07:36:32;;;;;;;2.47;0.50;;;22.40;99.90;;;;;;5042311;28;20053;-86
2022/07/13 07:38:58;;;;;;;1.50;0.52;;;22.80;99.90;;;;;;5040337;28;20072;-85
2022/07/13 07:41:24;;;;;;;3.13;0.40;;;23.00;99.90;;;;;;5053319;28;20027;-86
2022/07/13 07:43:49;;;;;;;5.43;0.40;;;23.30;99.90;;;;;;5042479;28;20028;-86
2022/07/13 07:46:15;;;;;;;0.70;0.25;;;23.50;98.90;;;;;;5045890;28;20029;-86
2022/07/13 07:48:41;;;;;;;1.05;0.50;;;23.60;98.90;;;;;;5044744;28;20621;-86
2022/07/13 07:51:07;;;;;;;0.77;0.30;;;23.50;98.00;;;;;;5049944;28;20077;-86
2022/07/13 07:53:32;;;;;;;1.80;0.40;;;23.60;98.40;;;;;;5049333;28;20047;-86
2022/07/13 07:55:58;;;;;;;1.85;0.30;;;23.40;98.50;;;;;;5047095;28;20033;-87
2022/07/13 07:58:24;;;;;;;1.60;0.30;;;23.70;98.20;;;;;;5049900;28;20105;-90
2022/07/13 08:00:50;;;;;;;3.15;0.20;;;23.80;97.70;;;;;;5050284;28;20037;-90
2022/07/13 08:03:15;;;;;;;0.65;0.13;;;24.20;97.10;;;;;;5051655;28;20112;-90
2022/07/13 08:05:44;;;;;;;0.40;0.17;;;24.40;96.60;;;;;;5052079;28;20112;-91
2022/07/13 08:08:10;;;;;;;1.33;0.20;;;24.60;95.60;;;;;;5052889;28;20028;-90
2022/07/13 08:10:36;;;;;;;0.68;0.20;;;24.70;94.80;;;;;;5052434;28;20104;-91
2022/07/13 08:13:04;;;;;;;0.30;0.30;;;24.90;94.70;;;;;;5047980;28;20029;-90
2022/07/13 08:15:30;;;;;;;0.32;0.20;;;25.30;95.20;;;;;;5051127;28;20017;-90
2022/07/13 08:17:59;;;;;;;0.65;0.20;;;25.50;93.60;;;;;;5048717;28;20048;-91
2022/07/13 08:20:25;;;;;;;0.55;0.20;;;25.70;94.20;;;;;;5044931;28;20026;-90
2022/07/13 08:22:51;;;;;;;1.15;0.20;;;25.90;93.60;;;;;;5049768;28;20021;-90
2022/07/13 08:25:17;;;;;;;1.48;0.20;;;26.00;93.20;;;;;;5060919;28;20021;-90
2022/07/13 08:27:43;;;;;;;1.40;0.30;;;26.10;93.50;;;;;;5050609;28;20029;-92
2022/07/13 08:30:11;;;;;;;1.67;0.20;;;26.20;92.80;;;;;;5047306;28;20029;-89
2022/07/13 08:32:37;;;;;;;0.75;0.20;;;25.90;91.40;;;;;;5046899;28;20021;-90
2022/07/13 08:40:32;;;;;;;0.55;0.20;;;26.00;91.80;;;;;;5048153;28;20036;-90
2022/07/13 08:42:58;;;;;;;0.40;0.13;;;26.20;92.40;;;;;;5050681;28;20100;-90
2022/07/13 08:45:25;;;;;;;0.20;0.10;;;26.30;92.40;;;;;;5047830;28;20166;-89
2022/07/13 08:47:51;;;;;;;0.50;0.13;;;26.30;90.90;;;;;;5048662;28;20029;-90
2022/07/13 08:50:17;;;;;;;0.50;0.15;;;26.30;89.80;;;;;;5050326;28;20051;-90
2022/07/13 08:52:43;;;;;;;0.40;0.10;;;26.50;90.00;;;;;;5043848;28;20037;-90
2022/07/13 08:55:09;;;;;;;0.10;0.00;;;26.80;89.90;;;;;;5049689;28;20022;-90
2022/07/13 08:57:36;;;;;;;0.40;0.10;;;26.80;89.50;;;;;;5052921;28;20020;-90
2022/07/13 09:00:13;;;;;;;0.70;0.30;;;26.70;88.10;;;;;;5051551;28;20036;-90
2022/07/13 09:02:39;;;;;;;1.63;0.20;;;26.90;88.80;;;;;;5052131;28;20117;-90
2022/07/13 09:23:07;;;;;;;0.30;0.20;;;27.60;85.80;;;;;;5049981;28;20524;-89
2022/07/13 09:25:37;;;;;;;0.52;0.20;;;27.70;83.10;;;;;;5031966;28;20020;-91
2022/07/13 09:32:39;;;;;;;0.22;0.10;;;28.30;83.90;;;;;;4995845;28;20459;-92
2022/07/13 09:35:38;;;;;;;0.75;0.20;;;28.70;82.70;;;;;;5006976;28;20031;-93
2022/07/13 09:38:39;;;;;;;0.77;0.30;;;27.60;81.70;;;;;;5026980;28;20443;-92
2022/07/13 09:41:29;;;;;;;0.30;0.20;;;28.00;79.80;;;;;;5019385;28;20050;-92
2022/07/13 09:47:54;;;;;;;0.20;0.10;;;29.90;79.50;;;;;;5049188;28;20086;-93
2022/07/13 10:01:02;;;;;;;0.10;0.10;;;29.90;73.70;;;;;;5047139;28;20083;-92
2022/07/13 10:04:09;;;;;;;0.47;0.20;;;28.70;71.20;;;;;;5031461;28;20106;-93
2022/07/13 10:07:49;;;;;;;;;;;;;;;;;;;;;
2022/07/13 10:10:32;;;;;;;0.60;0.10;;;30.10;69.60;;;;;;4927562;29;20036;-92
2022/07/13 10:13:07;;;;;;;0.30;0.10;;;30.10;70.00;;;;;;4927417;29;20130;-92
2022/07/13 10:23:19;;;;;;;0.45;0.10;;;31.80;62.30;;;;;;4935684;28;20103;-92
2022/07/13 10:25:58;;;;;;;0.10;0.10;;;32.20;61.90;;;;;;4979485;28;20030;-92
2022/07/13 10:29:12;;;;;;;0.47;0.10;;;30.50;65.60;;;;;;4982184;28;20045;-89
2022/07/13 10:31:45;;;;;;;0.40;0.10;;;31.20;60.00;;;;;;5031325;28;20032;-89
2022/07/13 10:34:14;;;;;;;0.10;0.00;;;31.20;56.90;;;;;;5034060;28;20061;-91
2022/07/13 10:36:56;;;;;;;0.95;0.10;;;31.10;61.30;;;;;;5032549;28;20474;-90
2022/07/13 10:39:35;;;;;;;0.00;0.00;;;31.00;60.20;;;;;;5034250;28;20036;-91
2022/07/13 10:42:05;;;;;;;0.90;0.10;;;30.90;60.90;;;;;;5040825;28;20029;-90
2022/07/13 10:44:42;;;;;;;0.10;0.10;;;31.00;59.90;;;;;;5035894;28;20469;-90
2022/07/13 10:47:20;;;;;;;0.43;0.32;;;31.30;59.60;;;;;;5028276;28;20189;-91
2022/07/13 10:50:00;;;;;;;0.10;0.10;;;31.40;60.80;;;;;;5032689;28;20025;-91
2022/07/13 10:52:43;;;;;;;0.30;0.10;;;31.50;59.70;;;;;;5028515;28;20048;-91
2022/07/13 10:55:23;;;;;;;0.45;0.10;;;31.50;60.60;;;;;;5031384;28;20029;-91
2022/07/13 10:57:56;;;;;;;0.10;0.10;;;31.60;59.80;;;;;;5023166;28;20120;-90
2022/07/13 11:00:43;;;;;;;0.30;0.10;;;31.80;56.50;;;;;;5041826;28;20489;-89
2022/07/13 11:03:24;;;;;;;0.50;0.10;;;31.60;56.30;;;;;;5030057;28;20044;-89
2022/07/13 11:06:17;;;;;;;0.70;0.00;;;31.60;56.70;;;;;;5029452;28;20067;-90
2022/07/13 11:08:52;;;;;;;0.10;0.10;;;31.60;56.80;;;;;;5045736;28;20024;-90
2022/07/13 11:11:28;;;;;;;1.35;0.20;;;31.80;57.20;;;;;;5047847;28;20118;-92
2022/07/13 11:13:53;;;;;;;0.20;0.10;;;31.40;53.60;;;;;;5046202;28;20101;-91
2022/07/13 11:16:46;;;;;;;0.00;0.00;;;31.40;53.00;;;;;;5022623;28;20116;-91
2022/07/13 11:19:12;;;;;;;0.13;0.00;;;31.70;54.40;;;;;;5030723;28;20478;-91
2022/07/13 11:22:17;;;;;;;0.15;0.10;;;31.90;54.10;;;;;;5023973;28;20045;-91
2022/07/13 11:27:46;;;;;;;0.10;0.03;;;32.10;53.20;;;;;;5043093;28;20103;-91
2022/07/13 11:30:17;;;;;;;0.17;0.00;;;32.40;52.30;;;;;;5033171;28;20059;-90
2022/07/13 11:32:43;;;;;;;0.00;0.00;;;32.60;53.10;;;;;;5026319;28;20033;-90
2022/07/13 11:35:12;;;;;;;0.30;0.00;;;32.80;55.10;;;;;;5027859;28;20084;-90
2022/07/13 11:37:42;;;;;;;0.38;0.10;;;32.70;53.10;;;;;;5028319;28;20029;-90
2022/07/13 11:40:08;;;;;;;0.00;0.00;;;32.50;52.90;;;;;;5033746;28;20060;-92
2022/07/13 11:42:34;;;;;;;0.13;0.10;;;32.60;51.90;;;;;;5027534;28;20021;-92
2022/07/13 11:45:05;;;;;;;0.08;0.00;;;32.50;53.50;;;;;;5033092;28;20040;-92
2022/07/13 11:47:50;;;;;;;;;;;32.60;49.60;;;;;;5033173;28;20381;-93
2022/07/13 11:50:21;;;;;;;0.08;0.00;;;33.20;50.00;;;;;;5033700;28;19913;-93
2022/07/13 11:52:59;;;;;;;0.20;0.10;;;33.70;49.80;;;;;;5036199;28;20128;-92
2022/07/13 11:55:25;;;;;;;0.13;0.10;;;33.80;49.60;;;;;;5030555;28;20021;-92
2022/07/13 11:57:58;;;;;;;0.00;0.00;;;33.60;49.40;;;;;;5030165;28;20047;-92
2022/07/13 12:00:28;;;;;;;0.05;0.00;;;33.80;49.30;;;;;;5033494;28;20028;-92
2022/07/13 12:02:56;;;;;;;0.52;0.17;;;33.90;49.50;;;;;;5030077;28;20025;-92
2022/07/13 12:05:33;;;;;;;0.00;0.00;;;34.40;47.40;;;;;;5035640;28;20024;-92
2022/07/13 12:08:22;;;;;;;0.00;0.00;;;34.40;46.10;;;;;;5035273;28;20025;-92
2022/07/13 12:10:56;;;;;;;0.05;0.00;;;34.60;45.50;;;;;;5029647;28;20028;-93
2022/07/13 12:14:01;;;;;;;0.68;0.10;;;34.90;46.20;;;;;;5031073;28;20461;-94
2022/07/13 12:20:17;;;;;;;0.00;0.00;;;35.40;44.80;;;;;;5049223;28;20063;-93
2022/07/13 12:23:09;;;;;;;0.20;0.00;;;35.20;45.20;;;;;;5036042;28;20433;-92
2022/07/13 12:25:36;;;;;;;0.15;0.00;;;35.90;47.00;;;;;;5027919;28;20493;-93
2022/07/13 12:28:09;;;;;;;0.43;0.00;;;34.60;44.70;;;;;;5037736;28;20037;-93
2022/07/13 12:30:37;;;;;;;0.10;0.00;;;34.70;45.30;;;;;;5040102;28;20073;-93
2022/07/13 12:33:13;;;;;;;0.50;0.10;;;34.60;45.80;;;;;;5022882;28;20040;-93
2022/07/13 12:35:44;;;;;;;0.00;0.00;;;34.00;45.30;;;;;;5029323;28;20025;-93
2022/07/13 12:38:34;;;;;;;0.43;0.10;;;34.40;47.20;;;;;;5032188;28;20033;-93
2022/07/13 12:41:05;;;;;;;0.15;0.08;;;34.70;45.40;;;;;;5032570;28;20032;-93
2022/07/13 12:43:31;;;;;;;0.10;0.00;;;34.80;44.20;;;;;;5030508;28;20017;-92
2022/07/13 12:46:02;;;;;;;0.25;0.00;;;35.20;45.80;;;;;;5035396;28;20017;-93
2022/07/13 12:48:58;;;;;;;;;;;35.50;44.60;;;;;;5028216;28;20017;-93
2022/07/13 12:51:57;;;;;;;0.17;0.00;;;36.10;43.20;;;;;;5030141;28;20325;-93
2022/07/13 12:54:50;;;;;;;0.52;0.10;;;36.20;43.00;;;;;;5045328;28;20024;-93
2022/07/13 12:57:39;;;;;;;0.10;0.05;;;36.00;44.10;;;;;;5030503;28;20033;-93
2022/07/13 13:00:30;;;;;;;0.20;0.10;;;35.20;45.30;;;;;;5025681;28;20090;-92
2022/07/13 13:02:56;;;;;;;0.15;0.10;;;34.60;45.50;;;;;;5010949;28;20105;-91
2022/07/13 13:05:29;;;;;;;0.30;0.10;;;34.40;46.70;;;;;;5030354;28;20155;-91
2022/07/13 13:07:58;;;;;;;0.10;0.08;;;34.90;46.80;;;;;;5024713;28;20022;-92
2022/07/13 13:10:24;;;;;;;0.00;0.00;;;34.30;47.00;;;;;;5023032;28;20021;-92
2022/07/13 13:12:50;;;;;;;0.20;0.10;;;34.50;47.60;;;;;;5027806;28;20522;-92
2022/07/13 13:15:17;;;;;;;0.08;0.00;;;34.50;48.20;;;;;;5044268;28;20033;-92
2022/07/13 13:17:58;;;;;;;0.05;0.00;;;34.30;47.80;;;;;;5031597;28;20026;-92
2022/07/13 13:20:26;;;;;;;0.10;0.00;;;34.30;48.10;;;;;;5029807;28;20724;-91
2022/07/13 13:22:52;;;;;;;0.20;0.10;;;34.30;47.20;;;;;;5030527;28;20490;-92
2022/07/13 13:25:18;;;;;;;0.10;0.10;;;34.30;47.30;;;;;;5029549;28;20055;-90
2022/07/13 13:27:45;;;;;;;0.00;0.00;;;33.90;47.30;;;;;;5025978;28;20026;-90
2022/07/13 13:32:55;;;;;;;0.20;0.08;;;34.10;47.80;;;;;;5039591;28;20117;-91
2022/07/13 13:35:20;;;;;;;0.10;0.00;;;34.00;46.70;;;;;;5027012;28;20108;-88
2022/07/13 13:37:49;;;;;;;0.00;0.00;;;33.70;47.80;;;;;;5026623;28;20039;-91
2022/07/13 13:40:20;;;;;;;1.35;0.10;;;33.70;46.20;;;;;;5027984;28;20021;-90
2022/07/13 13:42:46;;;;;;;0.20;0.10;;;33.60;46.10;;;;;;5030507;28;20385;-91
2022/07/13 13:45:12;;;;;;;0.00;0.00;;;33.40;48.00;;;;;;5029055;28;20738;-90
2022/07/13 13:47:38;;;;;;;0.10;0.00;;;33.40;46.70;;;;;;5019851;28;20072;-91
2022/07/13 13:50:04;;;;;;;0.03;0.00;;;33.20;45.80;;;;;;5027127;28;20017;-91
2022/07/13 13:52:30;;;;;;;0.05;0.05;;;33.10;46.40;;;;;;5030016;28;20016;-90
2022/07/13 13:54:56;;;;;;;0.10;0.00;;;33.10;46.00;;;;;;5044470;28;20029;-89
2022/07/13 13:57:22;;;;;;;0.03;0.00;;;33.00;46.90;;;;;;5025132;28;20740;-91